»·PEaware :: N567DD KLAX-KSNA

N567DD :: KLAX-KSNA

FLIGHT INFORMATION

Flight Status: Arrived
Operator: Privately registered:
United States
More flights under this callsign
Pilot: Jordan V. (27588)
Aircraft: CESSNA 172 SKYHAWK
(C172)
More flights by this aircraft type
Origin: KLAX Los Angeles Intl
United States
Destination: KSNA John Wayne-Orange Co
United States
More flights between these airports :: More routes between these airports
Route: SLI8 SLI
File this flight plan on PilotEdge
Remarks:
Altitude:
(Current/Filed)
4,000ft
Speed:
(Current/Filed)
110kts
Departed: 13-Feb-20 03:29 PM
Arrived: 13-Feb-20 03:54 PM
Distance/Time
Traveled:
31nm/0:25
Distance/Time
To Go:
Arrived

Flight Plot

Page will automatically refresh every two minutes.


Map Options




Map Legend


Flown Route
Filed Route
Departure Airport
Arrival Airport
Navaid (VOR, NDB)
Fix

Horizontal Profiles

Position Reports

Time Latitude Longitude Heading Altitude Ground
Speed
13-Feb-20 15:09 33.942803 -118.379869 39 104ft 0kts
13-Feb-20 15:10 33.942803 -118.379869 39 104ft 0kts
13-Feb-20 15:11 33.942803 -118.379869 39 104ft 0kts
13-Feb-20 15:12 33.942803 -118.379869 40 104ft 0kts
13-Feb-20 15:13 33.942803 -118.379869 39 104ft 0kts
13-Feb-20 15:14 33.942803 -118.379869 39 104ft 0kts
13-Feb-20 15:15 33.942803 -118.379869 40 104ft 0kts
13-Feb-20 15:16 33.942803 -118.379869 39 104ft 0kts
13-Feb-20 15:17 33.942803 -118.379869 40 104ft 0kts
13-Feb-20 15:18 33.942803 -118.379869 40 104ft 0kts
13-Feb-20 15:19 33.942803 -118.379869 40 104ft 0kts
13-Feb-20 15:20 33.942803 -118.379869 40 104ft 0kts
13-Feb-20 15:21 33.942803 -118.379869 39 104ft 0kts
13-Feb-20 15:22 33.942803 -118.379869 39 104ft 0kts
13-Feb-20 15:23 33.942528 -118.379636 185 104ft 8kts
13-Feb-20 15:24 33.940700 -118.380073 173 104ft 0kts
13-Feb-20 15:25 33.940700 -118.380073 173 104ft 0kts
13-Feb-20 15:26 33.940700 -118.380073 173 104ft 0kts
13-Feb-20 15:27 33.939904 -118.380178 233 104ft 14kts
13-Feb-20 15:28 33.937544 -118.402607 262 803ft 81kts
13-Feb-20 15:29 33.935114 -118.429474 261 1817ft 82kts
13-Feb-20 15:30 33.924344 -118.451756 215 2755ft 84kts
13-Feb-20 15:31 33.905173 -118.467861 214 3647ft 85kts
13-Feb-20 15:32 33.879877 -118.473070 178 4018ft 109kts
13-Feb-20 15:33 33.851303 -118.458724 144 3987ft 119kts
13-Feb-20 15:34 33.827332 -118.433952 142 3990ft 109kts
13-Feb-20 15:35 33.804897 -118.409925 142 4014ft 106kts
13-Feb-20 15:36 33.782055 -118.386324 144 3976ft 115kts
13-Feb-20 15:37 33.766152 -118.355434 86 3970ft 122kts
13-Feb-20 15:38 33.767056 -118.314636 81 3955ft 121kts
13-Feb-20 15:40 33.771781 -118.274716 83 4010ft 117kts
13-Feb-20 15:41 33.773551 -118.235594 93 4030ft 116kts
13-Feb-20 15:42 33.771468 -118.196911 91 4052ft 116kts
13-Feb-20 15:43 33.774981 -118.158131 86 4051ft 117kts
13-Feb-20 15:44 33.778178 -118.118940 96 4013ft 117kts
13-Feb-20 15:45 33.772357 -118.079901 104 3283ft 114kts
13-Feb-20 15:46 33.766020 -118.042845 105 2437ft 110kts
13-Feb-20 15:47 33.761216 -118.007363 103 2013ft 102kts
13-Feb-20 15:48 33.757687 -117.973444 100 2032ft 104kts
13-Feb-20 15:49 33.751418 -117.939523 109 2072ft 105kts
13-Feb-20 15:50 33.742866 -117.905689 113 1939ft 104kts
13-Feb-20 15:51 33.731745 -117.872232 116 1540ft 110kts
13-Feb-20 15:52 33.715460 -117.846021 184 1135ft 89kts
13-Feb-20 15:53 33.691844 -117.858685 210 413ft 76kts
13-Feb-20 15:54 33.677919 -117.867830 269 59ft 19kts
13-Feb-20 15:55 33.677297 -117.869306 208 59ft 17kts
13-Feb-20 15:56 33.672956 -117.872191 273 59ft 8kts
13-Feb-20 15:56 33.671580 -117.873901 207 59ft 0kts
13-Feb-20 15:58 33.671580 -117.873901 207 59ft 0kts
13-Feb-20 15:59 33.671580 -117.873901 207 59ft 0kts
13-Feb-20 15:59 33.671580 -117.873901 207 59ft 0kts
13-Feb-20 16:00 33.671580 -117.873901 207 59ft 0kts
13-Feb-20 16:02 33.671580 -117.873901 207 59ft 0kts

Navigation Log

Ident Type
Flight plan parsing failed, navigation log unavailable